createdAt,value
2023-03-17T00:01:59.139Z,100560.31
2023-03-17T00:04:28.391Z,100573.81
2023-03-17T00:06:57.919Z,100571.09
2023-03-17T00:09:26.191Z,100588.31
2023-03-17T00:11:55.540Z,100595.47
2023-03-17T00:14:23.283Z,100600.09
2023-03-17T00:16:52.551Z,100604.53
2023-03-17T00:19:27.647Z,100601.69
2023-03-17T00:21:56.076Z,100607.13
2023-03-17T00:24:23.859Z,100601.69
2023-03-17T00:26:51.647Z,100610.63
2023-03-17T00:29:21.029Z,100614.97
2023-03-17T00:31:51.545Z,100626.00
2023-03-17T00:34:23.570Z,100627.97
2023-03-17T00:36:52.400Z,100625.88
2023-03-17T00:39:20.730Z,100622.28
2023-03-17T00:41:49.034Z,100612.22
2023-03-17T00:44:17.609Z,100625.88
2023-03-17T00:46:47.045Z,100618.56
2023-03-17T00:49:20.812Z,100617.69
2023-03-17T00:51:50.759Z,100601.31
2023-03-17T00:54:20.633Z,100589.53
2023-03-17T00:56:49.991Z,100596.72
2023-03-17T00:59:25.535Z,100599.47
2023-03-17T01:01:56.145Z,100593.25
2023-03-17T01:04:24.269Z,100607.03
2023-03-17T01:06:53.215Z,100611.38
2023-03-17T01:09:24.147Z,100606.91
2023-03-17T01:11:52.117Z,100596.97
2023-03-17T01:14:20.062Z,100587.91
2023-03-17T01:16:48.765Z,100585.19
2023-03-17T01:19:17.900Z,100596.00
2023-03-17T01:21:46.453Z,100572.66
2023-03-17T01:24:14.603Z,100561.63
2023-03-17T01:26:42.617Z,100567.22
2023-03-17T01:29:10.487Z,100556.47
2023-03-17T01:31:39.191Z,100541.94
2023-03-17T01:34:07.050Z,100531.03
2023-03-17T01:36:37.535Z,100521.84
2023-03-17T01:39:07.300Z,100520.38
2023-03-17T01:41:37.528Z,100490.50
2023-03-17T01:44:05.776Z,100494.09
2023-03-17T01:46:35.550Z,100505.00
2023-03-17T01:49:12.805Z,100496.81
2023-03-17T01:51:47.634Z,100502.41
2023-03-17T01:54:19.845Z,100496.22
2023-03-17T01:56:51.703Z,100494.63
2023-03-17T01:59:24.641Z,100500.81
2023-03-17T02:01:55.420Z,100488.50
2023-03-17T02:04:25.957Z,100512.22
2023-03-17T02:06:58.438Z,100503.66
2023-03-17T02:09:28.547Z,100500.19
2023-03-17T02:11:57.605Z,100490.16
2023-03-17T02:14:25.541Z,100495.63
2023-03-17T02:16:53.776Z,100488.31
2023-03-17T02:19:21.570Z,100489.28
2023-03-17T02:21:53.748Z,100491.91
2023-03-17T02:24:27.545Z,100490.16
2023-03-17T02:26:59.408Z,100489.28
2023-03-17T02:29:27.692Z,100488.44
2023-03-17T02:31:55.460Z,100493.88
2023-03-17T02:34:23.534Z,100506.53
2023-03-17T02:36:52.691Z,100507.41
2023-03-17T02:39:20.713Z,100501.94
2023-03-17T02:41:48.590Z,100504.78
2023-03-17T02:44:16.484Z,100511.09
2023-03-17T02:46:44.341Z,100503.91
2023-03-17T02:49:12.892Z,100489.28
2023-03-17T02:51:40.821Z,100489.41
2023-03-17T02:54:10.198Z,100481.22
2023-03-17T02:56:38.509Z,100478.63
2023-03-17T02:59:07.215Z,100475.03
2023-03-17T03:01:35.486Z,100469.75
2023-03-17T03:04:03.989Z,100473.47
2023-03-17T03:06:32.718Z,100477.19
2023-03-17T03:09:00.632Z,100486.22
2023-03-17T03:11:29.931Z,100472.59
2023-03-17T03:13:57.818Z,100480.91
2023-03-17T03:16:25.590Z,100480.16
2023-03-17T03:18:53.406Z,100482.00
2023-03-17T03:21:22.064Z,100471.25
2023-03-17T03:23:50.368Z,100485.72
2023-03-17T03:26:18.257Z,100473.13
2023-03-17T03:28:47.523Z,100471.38
2023-03-17T03:31:15.357Z,100456.13
2023-03-17T03:33:44.065Z,100456.13
2023-03-17T03:36:13.395Z,100458.00
2023-03-17T03:38:41.617Z,100457.13
2023-03-17T03:41:09.525Z,100449.94
2023-03-17T03:43:37.365Z,100468.16
2023-03-17T03:46:06.657Z,100465.44
2023-03-17T03:48:34.931Z,100457.38
2023-03-17T03:51:04.015Z,100457.53
2023-03-17T03:53:31.937Z,100467.56
2023-03-17T03:55:59.765Z,100480.34
2023-03-17T03:58:27.579Z,100484.03
2023-03-17T04:00:55.374Z,100481.44
2023-03-17T04:03:24.770Z,100474.00
2023-03-17T04:05:52.589Z,100482.31
2023-03-17T04:08:20.918Z,100487.88
2023-03-17T04:10:48.763Z,100488.75
2023-03-17T04:13:16.695Z,100490.63
2023-03-17T04:15:44.464Z,100496.06
2023-03-17T04:18:13.205Z,100485.28
2023-03-17T04:20:42.385Z,100486.16
2023-03-17T04:23:10.190Z,100480.84
2023-03-17T04:25:38.103Z,100489.88
2023-03-17T04:28:06.424Z,100480.84
2023-03-17T04:30:34.477Z,100481.84
2023-03-17T04:33:02.442Z,100490.03
2023-03-17T04:35:30.570Z,100485.44
2023-03-17T04:37:59.747Z,100480.00
2023-03-17T04:40:27.616Z,100485.56
2023-03-17T04:42:55.446Z,100480.97
2023-03-17T04:45:23.224Z,100487.41
2023-03-17T04:47:51.002Z,100481.97
2023-03-17T04:50:18.994Z,100477.59
2023-03-17T04:52:46.877Z,100493.06
2023-03-17T04:55:16.566Z,100477.59
2023-03-17T04:57:44.889Z,100467.69
2023-03-17T05:00:15.418Z,100474.13
2023-03-17T05:02:43.376Z,100486.88
2023-03-17T05:05:12.249Z,100485.19
2023-03-17T05:07:40.429Z,100491.63
2023-03-17T05:10:09.422Z,100486.28
2023-03-17T05:12:38.613Z,100479.84
2023-03-17T05:15:07.904Z,100479.84
2023-03-17T05:17:35.785Z,100474.53
2023-03-17T05:20:04.293Z,100480.97
2023-03-17T05:22:32.465Z,100477.38
2023-03-17T05:25:00.427Z,100481.06
2023-03-17T05:27:28.247Z,100486.53
2023-03-17T05:29:57.663Z,100491.84
2023-03-17T05:32:25.784Z,100488.53
2023-03-17T05:34:53.808Z,100498.56
2023-03-17T05:37:21.636Z,100502.16
2023-03-17T05:39:49.589Z,100493.13
2023-03-17T05:42:17.388Z,100487.69
2023-03-17T05:44:45.281Z,100487.69
2023-03-17T05:47:14.688Z,100487.53
2023-03-17T05:49:42.780Z,100489.53
2023-03-17T05:52:10.767Z,100482.22
2023-03-17T05:54:38.606Z,100482.22
2023-03-17T05:57:06.458Z,100482.22
2023-03-17T05:59:34.920Z,100490.41
2023-03-17T06:02:03.071Z,100483.09
2023-03-17T06:04:32.873Z,100479.34
2023-03-17T06:07:00.725Z,100473.19
2023-03-17T06:09:28.476Z,100472.19
2023-03-17T06:11:56.401Z,100476.63
2023-03-17T06:14:27.012Z,100475.91
2023-03-17T06:16:55.241Z,100479.50
2023-03-17T06:19:23.012Z,100471.31
2023-03-17T06:21:52.216Z,100480.22
2023-03-17T06:24:20.237Z,100481.19
2023-03-17T06:26:48.101Z,100473.91
2023-03-17T06:29:15.879Z,100474.75
2023-03-17T06:31:50.462Z,100475.50
2023-03-17T06:34:18.936Z,100477.25
2023-03-17T06:36:46.734Z,100470.81
2023-03-17T06:39:18.083Z,100478.72
2023-03-17T06:41:46.068Z,100467.81
2023-03-17T06:44:14.124Z,100473.00
2023-03-17T06:46:42.449Z,100470.06
2023-03-17T06:49:13.392Z,100462.59
2023-03-17T06:51:41.742Z,100462.25
2023-03-17T06:54:09.628Z,100474.34
2023-03-17T06:56:38.905Z,100471.84
2023-03-17T06:59:06.728Z,100478.63
2023-03-17T07:01:34.719Z,100479.59
2023-03-17T07:04:02.552Z,100484.25
2023-03-17T07:06:31.013Z,100476.28
2023-03-17T07:09:00.979Z,100480.53
2023-03-17T07:11:30.732Z,100490.28
2023-03-17T07:13:59.947Z,100494.41
2023-03-17T07:16:27.875Z,100478.66
2023-03-17T07:18:55.808Z,100478.22
2023-03-17T07:21:23.688Z,100484.03
2023-03-17T07:23:51.474Z,100488.16
2023-03-17T07:26:19.476Z,100484.03
2023-03-17T07:28:47.714Z,100474.28
2023-03-17T07:31:16.917Z,100476.47
2023-03-17T07:33:44.871Z,100473.44
2023-03-17T07:36:13.321Z,100482.97
2023-03-17T07:38:41.698Z,100473.38
2023-03-17T07:41:10.128Z,100483.00
2023-03-17T07:43:38.699Z,100466.13
2023-03-17T07:46:07.345Z,100474.06
2023-03-17T07:48:40.806Z,100467.25
2023-03-17T07:51:13.801Z,100458.69
2023-03-17T07:53:41.848Z,100468.13
2023-03-17T07:56:09.917Z,100464.88
2023-03-17T07:58:38.097Z,100469.31
2023-03-17T08:01:06.887Z,100474.19
2023-03-17T08:03:38.628Z,100469.13
2023-03-17T08:06:08.748Z,100466.38
2023-03-17T08:08:36.928Z,100475.66
2023-03-17T08:11:06.322Z,100469.13
2023-03-17T08:13:34.699Z,100468.69
2023-03-17T08:16:02.753Z,100472.91
2023-03-17T08:18:31.029Z,100474.22
2023-03-17T08:21:00.260Z,100480.00
2023-03-17T08:23:28.025Z,100484.31
2023-03-17T08:25:58.348Z,100482.91
2023-03-17T08:28:28.209Z,100478.03
2023-03-17T08:30:57.845Z,100486.81
2023-03-17T08:33:25.805Z,100474.59
2023-03-17T08:35:53.718Z,100480.34
2023-03-17T08:38:22.893Z,100480.53
2023-03-17T08:40:50.924Z,100483.69
2023-03-17T08:43:19.018Z,100490.19
2023-03-17T08:45:46.929Z,100485.69
2023-03-17T08:48:15.283Z,100479.38
2023-03-17T08:50:43.280Z,100477.66
2023-03-17T08:53:11.890Z,100468.41
2023-03-17T08:55:41.162Z,100471.88
2023-03-17T08:58:09.428Z,100457.16
2023-03-17T09:00:37.285Z,100467.84
2023-03-17T09:03:05.753Z,100449.38
2023-03-17T09:05:35.679Z,100468.25
2023-03-17T09:08:05.658Z,100463.63
2023-03-17T09:10:33.927Z,100455.84
2023-03-17T09:13:04.657Z,100461.75
2023-03-17T09:15:33.964Z,100471.56
2023-03-17T09:18:03.288Z,100458.41
2023-03-17T09:20:31.617Z,100471.97
2023-03-17T09:23:00.319Z,100459.84
2023-03-17T09:25:28.548Z,100465.88
2023-03-17T09:27:56.642Z,100476.84
2023-03-17T09:30:27.237Z,100466.13
2023-03-17T09:32:55.071Z,100459.50
2023-03-17T09:35:22.942Z,100461.09
2023-03-17T09:37:51.586Z,100453.25
2023-03-17T09:40:22.409Z,100458.34
2023-03-17T09:43:01.475Z,100454.13
2023-03-17T09:45:34.664Z,100439.25
2023-03-17T09:48:29.933Z,100441.53
2023-03-17T09:51:00.006Z,100436.91
2023-03-17T09:53:34.062Z,100450.16
2023-03-17T09:56:07.769Z,100461.53
2023-03-17T09:58:38.365Z,100462.09
2023-03-17T10:01:10.362Z,100461.66
2023-03-17T10:03:38.938Z,100466.97
2023-03-17T10:06:19.952Z,100460.56
2023-03-17T10:08:56.205Z,100453.91
2023-03-17T10:11:32.969Z,100466.16
2023-03-17T10:14:04.345Z,100458.47
2023-03-17T10:16:42.445Z,100455.09
2023-03-17T10:19:22.367Z,100447.56
2023-03-17T10:21:58.814Z,100450.88
2023-03-17T10:24:28.064Z,100443.53
2023-03-17T10:26:59.170Z,100446.66
2023-03-17T10:29:27.696Z,100446.66
2023-03-17T10:31:58.586Z,100445.16
2023-03-17T10:34:29.896Z,100460.31
2023-03-17T10:37:02.565Z,100446.97
2023-03-17T10:39:32.764Z,100449.56
2023-03-17T10:42:09.667Z,100453.97
2023-03-17T10:44:44.958Z,100444.25
2023-03-17T10:47:32.672Z,100445.69
2023-03-17T10:50:05.681Z,100448.50
2023-03-17T10:52:39.622Z,100440.31
2023-03-17T10:55:09.092Z,100438.97
2023-03-17T10:57:38.785Z,100419.78
2023-03-17T11:00:15.675Z,100420.56
2023-03-17T11:02:50.093Z,100422.50
2023-03-17T11:05:23.504Z,100421.38
2023-03-17T11:07:57.586Z,100412.47
2023-03-17T11:10:27.961Z,100415.63
2023-03-17T11:13:00.491Z,100413.63
2023-03-17T11:15:34.816Z,100414.53
2023-03-17T11:18:05.472Z,100413.56
2023-03-17T11:20:43.776Z,100404.16
2023-03-17T11:23:22.271Z,100399.53
2023-03-17T11:25:58.273Z,100408.69
2023-03-17T11:28:35.020Z,100415.06
2023-03-17T11:31:10.558Z,100407.50
2023-03-17T11:33:47.871Z,100413.03
2023-03-17T11:36:30.779Z,100397.53
2023-03-17T11:39:04.150Z,100389.66
2023-03-17T11:42:00.142Z,100397.09
2023-03-17T11:44:55.681Z,100386.09
2023-03-17T11:47:42.837Z,100379.00
2023-03-17T11:50:24.364Z,100371.78
2023-03-17T11:53:09.891Z,100374.34
2023-03-17T11:55:46.381Z,100367.50
2023-03-17T11:58:20.739Z,100364.38
2023-03-17T12:01:20.902Z,100366.78
2023-03-17T12:03:53.737Z,100365.22
2023-03-17T12:06:32.895Z,100365.75
2023-03-17T12:09:07.805Z,100361.09
2023-03-17T12:11:41.730Z,100364.72
2023-03-17T12:14:22.650Z,100355.44
2023-03-17T12:16:54.666Z,100358.34
2023-03-17T12:19:27.980Z,100357.66
2023-03-17T12:22:02.179Z,100357.50
2023-03-17T12:24:36.481Z,100351.13
2023-03-17T12:27:10.212Z,100360.41
2023-03-17T12:29:47.257Z,100359.38
2023-03-17T12:32:21.844Z,100353.88
2023-03-17T12:34:53.890Z,100347.34
2023-03-17T12:37:24.037Z,100341.69
2023-03-17T12:39:58.787Z,100347.84
2023-03-17T12:42:38.044Z,100347.16
2023-03-17T12:45:23.223Z,100334.06
2023-03-17T12:48:03.911Z,100338.53
2023-03-17T12:50:56.426Z,100339.22
2023-03-17T12:53:30.210Z,100349.56
2023-03-17T12:56:04.711Z,100337.34
2023-03-17T12:58:36.955Z,100341.81
2023-03-17T13:01:14.732Z,100325.28
2023-03-17T13:03:57.408Z,100324.06
2023-03-17T13:06:26.030Z,100309.78
2023-03-17T13:08:55.592Z,100317.50
2023-03-17T13:11:46.586Z,100305.44
2023-03-17T13:14:26.070Z,100300.09
2023-03-17T13:17:04.527Z,100303.06
2023-03-17T13:19:34.293Z,100312.84
2023-03-17T13:22:35.245Z,100312.19
2023-03-17T13:25:42.934Z,100306.00
2023-03-17T13:28:42.645Z,100311.34
2023-03-17T13:31:16.177Z,100303.56
2023-03-17T13:33:46.503Z,100299.59
2023-03-17T13:36:40.031Z,100293.22
2023-03-17T13:39:35.831Z,100287.38
2023-03-17T13:42:20.804Z,100282.53
2023-03-17T13:45:07.215Z,100284.06
2023-03-17T13:47:37.968Z,100284.94
2023-03-17T13:50:10.374Z,100280.09
2023-03-17T13:52:43.468Z,100285.44
2023-03-17T13:55:38.694Z,100290.75
2023-03-17T13:58:26.145Z,100290.59
2023-03-17T14:01:03.901Z,100298.34
2023-03-17T14:03:38.794Z,100300.88
2023-03-17T14:06:08.922Z,100301.56
2023-03-17T14:08:38.921Z,100301.41
2023-03-17T14:11:09.916Z,100297.44
2023-03-17T14:13:44.263Z,100291.75
2023-03-17T14:16:20.109Z,100294.50
2023-03-17T14:18:50.957Z,100293.66
2023-03-17T14:21:24.435Z,100288.13
2023-03-17T14:23:55.904Z,100273.50
2023-03-17T14:26:25.483Z,100263.50
2023-03-17T14:28:53.669Z,100270.06
2023-03-17T14:31:25.364Z,100271.59
2023-03-17T14:33:57.211Z,100270.22
2023-03-17T14:36:25.968Z,100266.59
2023-03-17T14:38:55.931Z,100278.31
2023-03-17T14:41:26.017Z,100266.44
2023-03-17T14:43:58.571Z,100270.91
2023-03-17T14:46:29.082Z,100267.91
2023-03-17T14:49:01.125Z,100256.63
2023-03-17T14:51:31.863Z,100266.44
2023-03-17T14:54:02.178Z,100272.47
2023-03-17T14:56:39.112Z,100260.16
2023-03-17T14:59:19.476Z,100268.84
2023-03-17T15:01:49.225Z,100265.72
2023-03-17T15:04:19.351Z,100285.69
2023-03-17T15:06:49.855Z,100286.56
2023-03-17T15:09:29.456Z,100284.50
2023-03-17T15:12:04.086Z,100281.91
2023-03-17T15:14:34.473Z,100284.50
2023-03-17T15:17:06.670Z,100272.59
2023-03-17T15:19:41.775Z,100273.47
2023-03-17T15:22:25.121Z,100257.94
2023-03-17T15:25:00.267Z,100272.47
2023-03-17T15:27:29.424Z,100247.78
2023-03-17T15:29:57.372Z,100267.25
2023-03-17T15:32:28.669Z,100262.44
2023-03-17T15:34:57.908Z,100272.78
2023-03-17T15:37:27.573Z,100264.50
2023-03-17T15:39:56.510Z,100267.44
2023-03-17T15:42:26.167Z,100261.06
2023-03-17T15:44:54.839Z,100260.38
2023-03-17T15:47:24.885Z,100273.13
2023-03-17T15:49:58.138Z,100285.19
2023-03-17T15:52:37.444Z,100281.78
2023-03-17T15:55:17.156Z,100281.06
2023-03-17T15:57:53.816Z,100278.66
2023-03-17T16:00:24.835Z,100285.03
2023-03-17T16:02:55.037Z,100284.19
2023-03-17T16:05:26.786Z,100289.03
2023-03-17T16:07:55.221Z,100258.03
2023-03-17T16:10:25.202Z,100246.13
2023-03-17T16:12:53.241Z,100233.56
2023-03-17T16:15:24.002Z,100257.69
2023-03-17T16:17:54.985Z,100276.31
2023-03-17T16:20:27.099Z,100277.19
2023-03-17T16:22:57.100Z,100284.25
2023-03-17T16:25:27.774Z,100278.72
2023-03-17T16:27:57.354Z,100274.25
2023-03-17T16:30:31.183Z,100268.25
2023-03-17T16:33:04.658Z,100268.44
2023-03-17T16:35:34.149Z,100263.09
2023-03-17T16:38:02.191Z,100252.44
2023-03-17T16:40:35.426Z,100242.25
2023-03-17T16:43:12.953Z,100243.47
2023-03-17T16:45:43.703Z,100256.75
2023-03-17T16:48:14.262Z,100256.75
2023-03-17T16:50:44.458Z,100266.41
2023-03-17T16:53:12.610Z,100270.38
2023-03-17T16:55:41.538Z,100302.72
2023-03-17T16:58:16.947Z,100319.25
2023-03-17T17:00:45.240Z,100306.03
2023-03-17T17:03:13.781Z,100287.78
2023-03-17T17:05:44.445Z,100281.56
2023-03-17T17:08:12.654Z,100303.97
2023-03-17T17:10:41.343Z,100319.81
2023-03-17T17:13:11.120Z,100335.31
2023-03-17T17:15:39.938Z,100321.88
2023-03-17T17:18:12.557Z,100336.66
2023-03-17T17:20:41.772Z,100333.59
2023-03-17T17:23:15.301Z,100324.28
2023-03-17T17:25:43.670Z,100325.66
2023-03-17T17:28:13.508Z,100323.94
2023-03-17T17:30:45.152Z,100327.91
2023-03-17T17:33:13.628Z,100344.03
2023-03-17T17:35:42.169Z,100369.84
2023-03-17T17:38:18.116Z,100359.56
2023-03-17T17:40:46.565Z,100355.75
2023-03-17T17:43:14.611Z,100356.78
2023-03-17T17:45:43.585Z,100359.69
2023-03-17T17:48:11.791Z,100326.16
2023-03-17T17:50:39.810Z,100343.88
2023-03-17T17:53:11.693Z,100331.13
2023-03-17T17:55:42.010Z,100324.06
2023-03-17T17:58:10.029Z,100308.94
2023-03-17T18:00:38.118Z,100305.34
2023-03-17T18:03:05.968Z,100324.78
2023-03-17T18:05:33.837Z,100351.59
2023-03-17T18:08:02.570Z,100365.56
2023-03-17T18:10:31.706Z,100376.72
2023-03-17T18:13:01.096Z,100393.41
2023-03-17T18:15:29.257Z,100406.47
2023-03-17T18:17:57.441Z,100409.38
2023-03-17T18:20:26.109Z,100397.50
2023-03-17T18:22:54.104Z,100387.72
2023-03-17T18:25:22.080Z,100376.88
2023-03-17T18:27:50.337Z,100359.50
2023-03-17T18:30:24.463Z,100385.13
2023-03-17T18:32:57.208Z,100391.81
2023-03-17T18:35:27.096Z,100397.91
2023-03-17T18:37:57.250Z,100394.72
2023-03-17T18:40:25.625Z,100396.44
2023-03-17T18:42:53.944Z,100382.84
2023-03-17T18:45:23.701Z,100393.84
2023-03-17T18:47:52.177Z,100400.72
2023-03-17T18:50:22.026Z,100390.91
2023-03-17T18:52:50.351Z,100402.06
2023-03-17T18:55:18.580Z,100409.66
2023-03-17T18:57:46.999Z,100402.75
2023-03-17T19:00:18.582Z,100395.34
2023-03-17T19:02:48.139Z,100390.19
2023-03-17T19:05:16.324Z,100391.41
2023-03-17T19:07:44.289Z,100401.69
2023-03-17T19:10:14.154Z,100388.09
2023-03-17T19:12:42.444Z,100381.06
2023-03-17T19:15:12.417Z,100378.47
2023-03-17T19:17:40.944Z,100382.41
2023-03-17T19:20:12.305Z,100394.28
2023-03-17T19:22:40.355Z,100383.59
2023-03-17T19:25:09.642Z,100378.09
2023-03-17T19:27:37.917Z,100377.44
2023-03-17T19:30:07.317Z,100372.78
2023-03-17T19:32:35.399Z,100376.72
2023-03-17T19:35:03.264Z,100374.13
2023-03-17T19:37:33.694Z,100378.59
2023-03-17T19:40:01.709Z,100374.25
2023-03-17T19:42:29.582Z,100368.91
2023-03-17T19:44:57.393Z,100373.56
2023-03-17T19:47:25.249Z,100375.47
2023-03-17T19:49:53.802Z,100373.91
2023-03-17T19:52:21.777Z,100379.56
2023-03-17T19:54:51.132Z,100393.16
2023-03-17T19:57:20.865Z,100386.09
2023-03-17T19:59:48.880Z,100391.75
2023-03-17T20:02:17.660Z,100391.75
2023-03-17T20:04:45.770Z,100396.56
2023-03-17T20:07:13.646Z,100394.84
2023-03-17T20:09:42.208Z,100393.97
2023-03-17T20:12:11.529Z,100403.09
2023-03-17T20:14:39.603Z,100401.34
2023-03-17T20:17:08.061Z,100411.50
2023-03-17T20:19:39.128Z,100418.00
2023-03-17T20:22:07.488Z,100432.63
2023-03-17T20:24:35.574Z,100433.63
2023-03-17T20:27:04.162Z,100435.38
2023-03-17T20:29:33.677Z,100429.00
2023-03-17T20:32:02.035Z,100418.16
2023-03-17T20:34:31.745Z,100415.56
2023-03-17T20:37:00.018Z,100422.97
2023-03-17T20:39:28.006Z,100431.19
2023-03-17T20:41:57.478Z,100426.75
2023-03-17T20:44:25.999Z,100434.28
2023-03-17T20:46:55.430Z,100435.31
2023-03-17T20:49:24.382Z,100443.88
2023-03-17T20:51:52.610Z,100447.66
2023-03-17T20:54:20.462Z,100449.88
2023-03-17T20:56:52.326Z,100447.59
2023-03-17T20:59:21.087Z,100439.13
2023-03-17T21:01:49.925Z,100441.38
2023-03-17T21:04:20.992Z,100441.69
2023-03-17T21:06:49.758Z,100450.56
2023-03-17T21:09:19.867Z,100448.44
2023-03-17T21:11:49.206Z,100441.56
2023-03-17T21:14:17.338Z,100439.44
2023-03-17T21:16:47.180Z,100436.16
2023-03-17T21:19:16.267Z,100437.50
2023-03-17T21:21:45.999Z,100444.16
2023-03-17T21:24:25.877Z,100443.44
2023-03-17T21:26:53.953Z,100432.25
2023-03-17T21:29:22.696Z,100428.78
2023-03-17T21:31:50.771Z,100437.03
2023-03-17T21:34:18.853Z,100429.25
2023-03-17T21:36:48.126Z,100432.00
2023-03-17T21:39:16.244Z,100424.22
2023-03-17T21:41:44.824Z,100429.16
2023-03-17T21:44:13.446Z,100426.72
2023-03-17T21:46:41.481Z,100425.16
2023-03-17T21:49:09.777Z,100434.59
2023-03-17T21:51:37.625Z,100434.88
2023-03-17T21:54:06.962Z,100433.16
2023-03-17T21:56:34.773Z,100432.63
2023-03-17T21:59:03.066Z,100429.16
2023-03-17T22:01:30.939Z,100434.81
2023-03-17T22:03:59.598Z,100430.34
2023-03-17T22:06:29.419Z,100425.19
2023-03-17T22:08:58.754Z,100441.66
2023-03-17T22:11:28.041Z,100441.66
2023-03-17T22:13:55.843Z,100445.56
2023-03-17T22:16:24.367Z,100449.31
2023-03-17T22:18:52.913Z,100458.41
2023-03-17T22:21:21.898Z,100459.41
2023-03-17T22:23:51.222Z,100464.91
2023-03-17T22:26:21.574Z,100468.66
2023-03-17T22:28:51.366Z,100462.47
2023-03-17T22:31:25.007Z,100474.78
2023-03-17T22:33:56.362Z,100470.00
2023-03-17T22:36:28.364Z,100466.53
2023-03-17T22:39:08.666Z,100463.94
2023-03-17T22:41:43.284Z,100472.47
2023-03-17T22:44:18.713Z,100475.06
2023-03-17T22:46:48.580Z,100465.59
2023-03-17T22:49:16.996Z,100465.59
2023-03-17T22:51:46.644Z,100468.63
2023-03-17T22:54:17.375Z,100466.91
2023-03-17T22:56:52.065Z,100462.59
2023-03-17T22:59:24.373Z,100474.59
2023-03-17T23:01:52.357Z,100467.66
2023-03-17T23:04:20.242Z,100473.34
2023-03-17T23:06:48.822Z,100468.00
2023-03-17T23:09:16.749Z,100472.63
2023-03-17T23:11:44.720Z,100472.75
2023-03-17T23:14:13.122Z,100467.41
2023-03-17T23:16:42.974Z,100469.16
2023-03-17T23:19:10.958Z,100477.66
2023-03-17T23:21:47.820Z,100470.16
2023-03-17T23:24:15.825Z,100473.38
2023-03-17T23:26:46.355Z,100467.75
2023-03-17T23:29:14.604Z,100466.16
2023-03-17T23:31:44.122Z,100475.09
2023-03-17T23:34:12.086Z,100470.78
2023-03-17T23:36:40.610Z,100478.13
2023-03-17T23:39:09.711Z,100470.78
2023-03-17T23:41:37.744Z,100473.66
2023-03-17T23:44:06.612Z,100480.00
2023-03-17T23:46:34.505Z,100472.94
2023-03-17T23:49:04.332Z,100477.13
2023-03-17T23:51:32.194Z,100473.81
2023-03-17T23:54:00.041Z,100476.56
2023-03-17T23:56:28.350Z,100477.41
2023-03-17T23:58:56.231Z,100467.47
